createdAt,value
2022-09-13T00:01:34.182Z,13.18
2022-09-13T00:04:01.210Z,13.50
2022-09-13T00:06:28.090Z,11.48
2022-09-13T00:08:55.024Z,13.60
2022-09-13T00:11:26.918Z,11.35
2022-09-13T00:13:55.272Z,11.82
2022-09-13T00:16:25.344Z,14.75
2022-09-13T00:18:53.846Z,13.50
2022-09-13T00:21:22.493Z,12.43
2022-09-13T00:23:54.301Z,14.07
2022-09-13T00:26:24.718Z,12.57
2022-09-13T00:28:53.387Z,16.73
2022-09-13T00:31:22.148Z,13.35
2022-09-13T00:33:49.132Z,20.50
2022-09-13T00:36:16.376Z,14.35
2022-09-13T00:38:44.076Z,15.30
2022-09-13T00:41:15.595Z,14.57
2022-09-13T00:43:49.643Z,17.63
2022-09-13T00:46:26.689Z,19.10
2022-09-13T00:49:00.173Z,17.15
2022-09-13T00:51:28.508Z,16.85
2022-09-13T00:53:59.621Z,17.85
2022-09-13T00:56:43.825Z,14.88
2022-09-13T00:59:16.176Z,16.85
2022-09-13T01:01:49.983Z,15.82
2022-09-13T01:04:20.008Z,16.25
2022-09-13T01:06:47.901Z,15.82
2022-09-13T01:09:15.696Z,16.10
2022-09-13T01:12:18.719Z,16.60
2022-09-13T01:14:46.624Z,18.05
2022-09-13T01:17:13.514Z,16.63
2022-09-13T01:19:40.626Z,16.70
2022-09-13T01:22:46.026Z,19.70
2022-09-13T01:26:09.180Z,16.80
2022-09-13T01:29:04.734Z,17.20
2022-09-13T01:31:39.120Z,18.97
2022-09-13T01:34:43.694Z,18.75
2022-09-13T01:37:48.055Z,17.65
2022-09-13T01:40:31.305Z,19.40
2022-09-13T01:43:16.683Z,19.77
2022-09-13T01:45:58.770Z,19.52
2022-09-13T01:48:54.946Z,16.67
2022-09-13T01:51:39.446Z,16.98
2022-09-13T01:54:12.211Z,17.77
2022-09-13T01:56:47.575Z,16.27
2022-09-13T02:01:53.815Z,16.80
2022-09-13T02:04:25.360Z,15.20
2022-09-13T02:07:16.734Z,15.75
2022-09-13T02:09:51.583Z,17.50
2022-09-13T02:12:23.576Z,17.98
2022-09-13T02:15:03.370Z,21.70
2022-09-13T02:17:37.444Z,17.23
2022-09-13T02:20:28.397Z,18.00
2022-09-13T02:23:00.783Z,18.00
2022-09-13T02:25:30.311Z,18.15
2022-09-13T02:28:02.767Z,19.95
2022-09-13T02:30:34.308Z,18.63
2022-09-13T02:33:07.212Z,19.95
2022-09-13T02:35:42.869Z,19.45
2022-09-13T02:38:35.890Z,19.40
2022-09-13T02:41:28.749Z,21.95
2022-09-13T02:44:13.102Z,17.17
2022-09-13T02:46:45.823Z,18.20
2022-09-13T02:49:27.752Z,17.88
2022-09-13T02:51:57.428Z,16.80
2022-09-13T02:54:57.089Z,19.85
2022-09-13T02:57:33.055Z,20.73
2022-09-13T03:00:00.465Z,21.45
2022-09-13T03:02:33.619Z,25.00
2022-09-13T03:05:02.290Z,22.58
2022-09-13T03:07:29.357Z,29.73
2022-09-13T03:10:02.272Z,24.17
2022-09-13T03:12:32.602Z,25.98
2022-09-13T03:15:10.589Z,27.05
2022-09-13T03:18:07.045Z,27.10
2022-09-13T03:20:49.117Z,27.52
2022-09-13T03:23:22.129Z,27.98
2022-09-13T03:26:10.607Z,27.27
2022-09-13T03:28:58.594Z,26.42
2022-09-13T03:31:33.285Z,28.13
2022-09-13T03:34:24.401Z,27.08
2022-09-13T03:37:22.891Z,26.15
2022-09-13T03:40:00.472Z,27.95
2022-09-13T03:42:46.043Z,27.30
2022-09-13T03:45:16.922Z,26.05
2022-09-13T03:47:48.266Z,27.85
2022-09-13T03:50:20.012Z,30.13
2022-09-13T03:52:51.294Z,27.27
2022-09-13T03:55:21.110Z,28.17
2022-09-13T03:57:47.972Z,25.27
2022-09-13T04:00:15.550Z,30.48
2022-09-13T04:02:42.433Z,28.08
2022-09-13T04:05:09.399Z,26.48
2022-09-13T04:07:38.981Z,28.42
2022-09-13T04:10:08.747Z,26.52
2022-09-13T04:12:37.811Z,30.00
2022-09-13T04:15:05.656Z,25.65
2022-09-13T04:17:32.524Z,32.65
2022-09-13T04:19:59.313Z,29.98
2022-09-13T04:22:26.535Z,31.10
2022-09-13T04:24:53.339Z,25.00
2022-09-13T04:27:20.462Z,24.05
2022-09-13T04:29:47.316Z,22.38
2022-09-13T04:32:14.716Z,19.85
2022-09-13T04:34:41.590Z,15.68
2022-09-13T04:37:09.310Z,17.70
2022-09-13T04:39:36.139Z,15.45
2022-09-13T04:42:03.643Z,13.85
2022-09-13T04:44:30.519Z,12.98
2022-09-13T04:46:57.439Z,12.20
2022-09-13T04:49:24.428Z,11.68
2022-09-13T04:51:51.500Z,9.30
2022-09-13T04:54:18.687Z,9.13
2022-09-13T04:56:45.851Z,6.32
2022-09-13T04:59:13.211Z,8.88
2022-09-13T05:01:40.725Z,8.50
2022-09-13T05:04:09.272Z,8.05
2022-09-13T05:06:36.440Z,7.07
2022-09-13T05:09:03.581Z,7.30
2022-09-13T05:11:31.098Z,6.78
2022-09-13T05:13:59.996Z,8.52
2022-09-13T05:16:29.545Z,7.80
2022-09-13T05:18:57.150Z,7.57
2022-09-13T05:21:24.381Z,6.60
2022-09-13T05:23:52.553Z,8.48
2022-09-13T05:26:20.126Z,7.13
2022-09-13T05:28:47.347Z,8.18
2022-09-13T05:31:18.030Z,11.15
2022-09-13T05:33:47.506Z,8.80
2022-09-13T05:36:14.630Z,11.13
2022-09-13T05:38:41.543Z,10.75
2022-09-13T05:41:08.668Z,12.00
2022-09-13T05:43:36.793Z,13.02
2022-09-13T05:46:11.603Z,9.45
2022-09-13T05:48:38.963Z,11.13
2022-09-13T05:51:10.320Z,14.05
2022-09-13T05:53:42.293Z,9.27
2022-09-13T05:56:15.843Z,11.77
2022-09-13T05:58:46.593Z,12.23
2022-09-13T06:01:14.088Z,9.25
2022-09-13T06:03:40.957Z,7.65
2022-09-13T06:06:08.999Z,8.73
2022-09-13T06:08:36.528Z,9.65
2022-09-13T06:11:06.067Z,6.65
2022-09-13T06:13:33.713Z,9.05
2022-09-13T06:16:03.034Z,13.13
2022-09-13T06:18:30.576Z,9.15
2022-09-13T06:21:07.905Z,9.85
2022-09-13T06:23:35.805Z,11.73
2022-09-13T06:26:06.890Z,9.90
2022-09-13T06:28:37.254Z,12.07
2022-09-13T06:31:08.700Z,11.43
2022-09-13T06:33:37.378Z,6.35
2022-09-13T06:36:11.506Z,10.38
2022-09-13T06:38:39.955Z,9.82
2022-09-13T06:41:12.469Z,10.07
2022-09-13T06:43:40.727Z,8.52
2022-09-13T06:46:28.088Z,6.15
2022-09-13T06:48:55.645Z,8.63
2022-09-13T06:51:24.335Z,9.60
2022-09-13T06:53:52.129Z,10.30
2022-09-13T06:56:21.636Z,11.25
2022-09-13T06:58:50.644Z,9.85
2022-09-13T07:01:19.293Z,9.75
2022-09-13T07:03:55.319Z,10.35
2022-09-13T07:06:24.645Z,10.80
2022-09-13T07:08:52.478Z,7.97
2022-09-13T07:11:21.918Z,6.25
2022-09-13T07:13:57.088Z,11.48
2022-09-13T07:16:27.587Z,7.78
2022-09-13T07:19:00.092Z,6.25
2022-09-13T07:21:28.262Z,7.47
2022-09-13T07:23:56.260Z,7.13
2022-09-13T07:26:24.175Z,7.15
2022-09-13T07:28:54.151Z,8.38
2022-09-13T07:31:24.091Z,8.90
2022-09-13T07:33:56.193Z,6.90
2022-09-13T07:36:23.120Z,7.03
2022-09-13T07:38:50.541Z,5.53
2022-09-13T07:41:26.204Z,7.15
2022-09-13T07:43:53.454Z,5.90
2022-09-13T07:46:26.428Z,6.25
2022-09-13T07:48:55.342Z,7.35
2022-09-13T07:51:27.775Z,5.15
2022-09-13T07:54:04.026Z,10.18
2022-09-13T07:56:33.444Z,6.10
2022-09-13T07:59:12.746Z,4.85
2022-09-13T08:01:50.837Z,4.00
2022-09-13T08:04:21.451Z,7.75
2022-09-13T08:06:48.462Z,4.07
2022-09-13T08:09:16.610Z,4.35
2022-09-13T08:11:46.342Z,3.60
2022-09-13T08:14:15.714Z,7.13
2022-09-13T08:16:43.308Z,5.22
2022-09-13T08:19:14.249Z,3.85
2022-09-13T08:21:42.528Z,6.18
2022-09-13T08:24:17.678Z,5.95
2022-09-13T08:26:45.349Z,5.38
2022-09-13T08:29:13.284Z,4.35
2022-09-13T08:31:40.583Z,2.28
2022-09-13T08:34:11.885Z,5.85
2022-09-13T08:36:40.366Z,4.97
2022-09-13T08:39:07.460Z,4.20
2022-09-13T08:41:52.579Z,7.18
2022-09-13T08:44:33.281Z,6.22
2022-09-13T08:47:20.467Z,4.10
2022-09-13T08:49:51.044Z,4.40
2022-09-13T08:52:35.720Z,5.80
2022-09-13T08:55:20.060Z,5.15
2022-09-13T08:57:55.443Z,6.72
2022-09-13T09:03:05.450Z,4.47
2022-09-13T09:05:43.570Z,4.18
2022-09-13T09:08:35.917Z,7.47
2022-09-13T09:11:09.696Z,7.03
2022-09-13T09:13:59.478Z,5.05
2022-09-13T09:16:26.346Z,4.95
2022-09-13T09:19:00.131Z,5.97
2022-09-13T09:21:27.566Z,4.80
2022-09-13T09:23:55.879Z,4.22
2022-09-13T09:26:29.108Z,5.78
2022-09-13T09:29:00.877Z,8.35
2022-09-13T09:31:36.989Z,10.45
2022-09-13T09:34:42.773Z,6.88
2022-09-13T09:37:21.307Z,8.33
2022-09-13T09:39:49.779Z,7.03
2022-09-13T09:42:24.918Z,9.43
2022-09-13T09:44:56.080Z,6.93
2022-09-13T09:47:29.254Z,7.63
2022-09-13T09:50:15.059Z,6.13
2022-09-13T09:53:06.106Z,5.25
2022-09-13T09:55:45.941Z,4.25
2022-09-13T09:58:16.971Z,6.22
2022-09-13T10:00:55.871Z,7.40
2022-09-13T10:03:31.798Z,6.50
2022-09-13T10:06:27.689Z,6.00
2022-09-13T10:09:14.741Z,4.85
2022-09-13T10:11:59.551Z,7.97
2022-09-13T10:14:38.136Z,7.32
2022-09-13T10:17:23.421Z,4.13
2022-09-13T10:20:03.295Z,3.78
2022-09-13T10:22:32.502Z,3.25
2022-09-13T10:25:22.062Z,6.25
2022-09-13T10:27:54.135Z,5.35
2022-09-13T10:30:38.859Z,5.47
2022-09-13T10:33:07.013Z,5.53
2022-09-13T10:35:34.137Z,5.90
2022-09-13T10:38:01.280Z,4.88
2022-09-13T10:40:39.375Z,3.90
2022-09-13T10:43:16.150Z,4.78
2022-09-13T10:45:43.198Z,7.38
2022-09-13T10:48:47.121Z,3.42
2022-09-13T10:51:26.126Z,7.28
2022-09-13T10:54:15.372Z,2.47
2022-09-13T10:56:43.909Z,3.45
2022-09-13T10:59:30.777Z,5.57
2022-09-13T11:02:19.254Z,2.95
2022-09-13T11:05:01.890Z,3.85
2022-09-13T11:07:28.739Z,5.45
2022-09-13T11:10:12.439Z,4.72
2022-09-13T11:13:20.664Z,2.58
2022-09-13T11:16:03.707Z,7.25
2022-09-13T11:18:42.628Z,3.35
2022-09-13T11:21:21.436Z,4.35
2022-09-13T11:24:38.819Z,4.75
2022-09-13T11:27:14.858Z,4.97
2022-09-13T11:30:10.514Z,4.95
2022-09-13T11:32:52.330Z,4.28
2022-09-13T11:35:22.009Z,5.20
2022-09-13T11:37:54.892Z,6.07
2022-09-13T11:40:54.337Z,3.03
2022-09-13T11:43:33.678Z,4.03
2022-09-13T11:46:15.526Z,6.63
2022-09-13T11:48:58.921Z,5.88
2022-09-13T11:51:31.504Z,6.95
2022-09-13T11:54:13.468Z,5.97
2022-09-13T11:56:49.898Z,10.88
2022-09-13T11:59:38.332Z,7.22
2022-09-13T12:02:26.660Z,13.13
2022-09-13T12:05:21.605Z,4.40
2022-09-13T12:07:55.952Z,3.78
2022-09-13T12:10:27.512Z,5.50
2022-09-13T12:12:56.863Z,5.68
2022-09-13T12:15:40.410Z,4.13
2022-09-13T12:18:18.117Z,2.38
2022-09-13T12:20:52.445Z,4.57
2022-09-13T12:23:55.596Z,6.72
2022-09-13T12:26:39.026Z,9.05
2022-09-13T12:29:14.629Z,7.15
2022-09-13T12:31:41.658Z,4.68
2022-09-13T12:34:25.554Z,7.18
2022-09-13T12:37:21.301Z,6.53
2022-09-13T12:40:43.828Z,6.30
2022-09-13T12:43:13.442Z,10.13
2022-09-13T12:45:55.492Z,8.05
2022-09-13T12:48:37.550Z,9.05
2022-09-13T12:51:16.426Z,6.85
2022-09-13T12:54:03.566Z,10.05
2022-09-13T12:56:57.033Z,9.07
2022-09-13T12:59:56.461Z,10.70
2022-09-13T13:02:38.259Z,9.00
2022-09-13T13:05:34.893Z,7.60
2022-09-13T13:08:05.841Z,10.30
2022-09-13T13:10:38.284Z,11.40
2022-09-13T13:13:11.450Z,12.40
2022-09-13T13:15:38.272Z,10.23
2022-09-13T13:18:27.951Z,7.97
2022-09-13T13:20:54.849Z,6.88
2022-09-13T13:23:45.954Z,10.90
2022-09-13T13:26:32.767Z,6.60
2022-09-13T13:29:03.631Z,7.78
2022-09-13T13:31:30.550Z,10.27
2022-09-13T13:34:00.748Z,8.57
2022-09-13T13:36:29.024Z,6.40
2022-09-13T13:38:57.177Z,6.55
2022-09-13T13:41:33.125Z,8.60
2022-09-13T13:44:01.495Z,6.03
2022-09-13T13:46:31.306Z,6.05
2022-09-13T13:49:30.270Z,7.15
2022-09-13T13:52:09.929Z,9.20
2022-09-13T13:54:45.555Z,5.78
2022-09-13T13:57:31.818Z,10.32
2022-09-13T14:00:25.393Z,12.27
2022-09-13T14:02:57.658Z,4.00
2022-09-13T14:05:43.019Z,7.57
2022-09-13T14:08:30.962Z,6.65
2022-09-13T14:11:00.967Z,6.47
2022-09-13T14:14:05.436Z,8.75
2022-09-13T14:16:47.521Z,10.75
2022-09-13T14:19:27.856Z,8.35
2022-09-13T14:22:19.361Z,7.45
2022-09-13T14:24:48.860Z,10.15
2022-09-13T14:27:24.937Z,8.38
2022-09-13T14:30:01.728Z,10.95
2022-09-13T14:32:38.449Z,7.93
2022-09-13T14:35:38.761Z,5.13
2022-09-13T14:38:11.802Z,11.38
2022-09-13T14:40:38.906Z,8.40
2022-09-13T14:43:17.469Z,8.40
2022-09-13T14:45:48.841Z,9.40
2022-09-13T14:48:23.546Z,6.80
2022-09-13T14:51:09.069Z,7.25
2022-09-13T14:53:36.615Z,8.32
2022-09-13T14:56:07.698Z,9.27
2022-09-13T14:58:50.282Z,9.93
2022-09-13T15:01:22.184Z,10.95
2022-09-13T15:03:51.625Z,7.35
2022-09-13T15:06:28.114Z,8.88
2022-09-13T15:09:13.389Z,5.43
2022-09-13T15:11:52.415Z,12.93
2022-09-13T15:14:38.199Z,7.85
2022-09-13T15:17:10.480Z,8.32
2022-09-13T15:19:48.025Z,9.40
2022-09-13T15:22:24.451Z,9.88
2022-09-13T15:24:54.232Z,6.65
2022-09-13T15:27:32.534Z,7.93
2022-09-13T15:30:03.433Z,11.48
2022-09-13T15:32:43.267Z,8.75
2022-09-13T15:35:38.248Z,8.07
2022-09-13T15:38:31.576Z,9.82
2022-09-13T15:41:11.884Z,6.13
2022-09-13T15:43:39.089Z,9.40
2022-09-13T15:46:06.802Z,12.90
2022-09-13T15:48:36.174Z,13.82
2022-09-13T15:51:12.689Z,11.73
2022-09-13T15:53:41.749Z,17.25
2022-09-13T15:56:12.465Z,11.85
2022-09-13T15:58:39.343Z,16.17
2022-09-13T16:01:06.717Z,8.52
2022-09-13T16:03:33.704Z,11.63
2022-09-13T16:06:00.593Z,14.23
2022-09-13T16:08:27.680Z,7.65
2022-09-13T16:10:54.537Z,9.70
2022-09-13T16:13:21.417Z,13.90
2022-09-13T16:15:48.921Z,10.93
2022-09-13T16:18:19.127Z,11.18
2022-09-13T16:20:46.617Z,10.30
2022-09-13T16:23:13.699Z,8.55
2022-09-13T16:25:40.667Z,9.02
2022-09-13T16:28:08.725Z,10.30
2022-09-13T16:30:36.853Z,9.88
2022-09-13T16:33:03.902Z,13.10
2022-09-13T16:35:32.957Z,12.60
2022-09-13T16:38:00.329Z,10.07
2022-09-13T16:40:27.309Z,11.55
2022-09-13T16:42:54.384Z,11.25
2022-09-13T16:45:21.618Z,9.65
2022-09-13T16:47:48.695Z,6.65
2022-09-13T16:50:15.888Z,9.50
2022-09-13T16:52:42.799Z,5.50
2022-09-13T16:55:10.055Z,11.48
2022-09-13T16:57:37.309Z,6.68
2022-09-13T17:00:09.023Z,12.25
2022-09-13T17:02:36.150Z,9.15
2022-09-13T17:05:05.165Z,12.77
2022-09-13T17:07:32.275Z,7.63
2022-09-13T17:09:59.208Z,9.20
2022-09-13T17:12:26.845Z,12.40
2022-09-13T17:14:55.180Z,8.07
2022-09-13T17:17:22.304Z,8.27
2022-09-13T17:19:50.030Z,8.20
2022-09-13T17:22:16.948Z,6.72
2022-09-13T17:24:43.935Z,8.77
2022-09-13T17:27:11.208Z,9.68
2022-09-13T17:29:38.140Z,14.77
2022-09-13T17:32:05.941Z,9.15
2022-09-13T17:34:34.652Z,8.02
2022-09-13T17:37:03.790Z,9.90
2022-09-13T17:39:31.371Z,9.70
2022-09-13T17:41:58.822Z,12.45
2022-09-13T17:44:25.805Z,11.02
2022-09-13T17:46:52.742Z,9.65
2022-09-13T17:49:20.199Z,5.85
2022-09-13T17:51:47.430Z,7.78
2022-09-13T17:54:14.224Z,11.60
2022-09-13T17:56:45.182Z,7.47
2022-09-13T17:59:20.197Z,7.45
2022-09-13T18:01:50.583Z,9.00
2022-09-13T18:04:19.890Z,12.70
2022-09-13T18:06:47.063Z,7.97
2022-09-13T18:09:17.997Z,9.95
2022-09-13T18:11:45.130Z,7.47
2022-09-13T18:14:18.108Z,5.18
2022-09-13T18:16:45.374Z,8.98
2022-09-13T18:19:13.063Z,7.28
2022-09-13T18:21:40.278Z,12.85
2022-09-13T18:24:07.378Z,7.95
2022-09-13T18:26:34.882Z,8.43
2022-09-13T18:29:07.713Z,8.27
2022-09-13T18:31:36.359Z,6.03
2022-09-13T18:34:06.128Z,10.77
2022-09-13T18:36:34.151Z,5.55
2022-09-13T18:39:03.068Z,7.78
2022-09-13T18:41:35.876Z,9.70
2022-09-13T18:44:04.995Z,7.10
2022-09-13T18:46:34.170Z,12.10
2022-09-13T18:49:03.261Z,9.90
2022-09-13T18:51:39.203Z,8.68
2022-09-13T18:54:07.897Z,12.38
2022-09-13T18:56:35.700Z,6.82
2022-09-13T18:59:05.212Z,11.85
2022-09-13T19:01:38.061Z,5.22
2022-09-13T19:04:08.522Z,7.10
2022-09-13T19:06:38.417Z,9.02
2022-09-13T19:09:08.630Z,7.32
2022-09-13T19:11:46.734Z,6.43
2022-09-13T19:14:19.445Z,4.82
2022-09-13T19:16:46.781Z,7.25
2022-09-13T19:19:13.790Z,5.07
2022-09-13T19:21:40.878Z,7.15
2022-09-13T19:24:16.242Z,7.20
2022-09-13T19:26:45.081Z,18.20
2022-09-13T19:29:14.557Z,9.27
2022-09-13T19:31:44.166Z,6.05
2022-09-13T19:34:12.809Z,8.68
2022-09-13T19:36:42.698Z,7.78
2022-09-13T19:39:10.382Z,8.88
2022-09-13T19:41:38.314Z,9.52
2022-09-13T19:44:06.014Z,10.20
2022-09-13T19:46:36.585Z,8.27
2022-09-13T19:49:04.563Z,5.63
2022-09-13T19:51:35.725Z,6.80
2022-09-13T19:54:04.208Z,8.35
2022-09-13T19:56:33.386Z,8.93
2022-09-13T19:59:01.729Z,10.98
2022-09-13T20:01:31.672Z,4.85
2022-09-13T20:04:08.191Z,11.13
2022-09-13T20:06:41.164Z,8.82
2022-09-13T20:09:09.495Z,7.60
2022-09-13T20:11:42.051Z,9.32
2022-09-13T20:14:09.982Z,10.05
2022-09-13T20:16:38.617Z,11.18
2022-09-13T20:19:29.543Z,5.72
2022-09-13T20:21:55.635Z,11.95
2022-09-13T20:24:22.619Z,7.93
2022-09-13T20:26:52.102Z,7.82
2022-09-13T20:29:26.858Z,6.15
2022-09-13T20:31:55.392Z,8.47
2022-09-13T20:34:22.387Z,6.47
2022-09-13T20:36:49.266Z,4.85
2022-09-13T20:39:16.300Z,7.32
2022-09-13T20:41:43.954Z,11.30
2022-09-13T20:44:11.691Z,5.00
2022-09-13T20:46:40.355Z,7.18
2022-09-13T20:49:09.140Z,8.50
2022-09-13T20:51:36.386Z,6.13
2022-09-13T20:54:03.923Z,7.60
2022-09-13T20:56:34.504Z,6.55
2022-09-13T20:59:02.713Z,8.20
2022-09-13T21:01:31.241Z,6.20
2022-09-13T21:03:59.375Z,10.13
2022-09-13T21:06:29.690Z,7.15
2022-09-13T21:08:59.729Z,6.63
2022-09-13T21:11:30.402Z,7.97
2022-09-13T21:14:05.754Z,6.50
2022-09-13T21:16:35.925Z,9.27
2022-09-13T21:19:03.562Z,7.55
2022-09-13T21:21:36.129Z,7.80
2022-09-13T21:24:04.617Z,7.10
2022-09-13T21:26:32.307Z,6.47
2022-09-13T21:29:00.485Z,8.10
2022-09-13T21:31:32.171Z,6.93
2022-09-13T21:33:59.941Z,7.97
2022-09-13T21:36:31.590Z,7.00
2022-09-13T21:38:58.746Z,4.93
2022-09-13T21:41:27.243Z,4.75
2022-09-13T21:43:55.046Z,5.85
2022-09-13T21:46:27.583Z,3.92
2022-09-13T21:48:56.682Z,4.70
2022-09-13T21:51:28.161Z,6.57
2022-09-13T21:53:59.053Z,3.97
2022-09-13T21:56:28.164Z,3.60
2022-09-13T21:59:00.212Z,4.57
2022-09-13T22:01:29.915Z,5.75
2022-09-13T22:03:57.832Z,9.20
2022-09-13T22:06:27.354Z,4.63
2022-09-13T22:08:59.044Z,5.85
2022-09-13T22:11:31.614Z,4.80
2022-09-13T22:13:59.764Z,7.22
2022-09-13T22:16:29.078Z,6.75
2022-09-13T22:18:58.504Z,7.85
2022-09-13T22:21:29.026Z,8.43
2022-09-13T22:23:56.148Z,6.78
2022-09-13T22:26:28.583Z,4.43
2022-09-13T22:28:57.976Z,8.85
2022-09-13T22:31:31.287Z,6.75
2022-09-13T22:34:00.454Z,5.65
2022-09-13T22:36:28.084Z,9.48
2022-09-13T22:38:55.453Z,10.18
2022-09-13T22:41:24.733Z,8.80
2022-09-13T22:43:52.261Z,12.43
2022-09-13T22:46:24.925Z,9.93
2022-09-13T22:48:53.521Z,8.50
2022-09-13T22:51:21.049Z,6.78
2022-09-13T22:53:49.401Z,8.73
2022-09-13T22:56:27.123Z,11.70
2022-09-13T22:58:59.627Z,8.65
2022-09-13T23:01:28.181Z,11.05
2022-09-13T23:03:55.853Z,9.18
2022-09-13T23:06:24.904Z,12.05
2022-09-13T23:08:54.073Z,12.20
2022-09-13T23:11:24.349Z,9.90
2022-09-13T23:13:52.905Z,9.48
2022-09-13T23:16:21.423Z,11.93
2022-09-13T23:18:49.310Z,19.42
2022-09-13T23:21:24.334Z,10.13
2022-09-13T23:23:51.442Z,13.68
2022-09-13T23:26:20.588Z,11.05
2022-09-13T23:28:59.494Z,12.45
2022-09-13T23:31:29.498Z,11.73
2022-09-13T23:33:59.772Z,16.23
2022-09-13T23:36:34.367Z,10.63
2022-09-13T23:39:03.488Z,15.13
2022-09-13T23:41:31.806Z,7.60
2022-09-13T23:43:59.099Z,11.48
2022-09-13T23:46:26.045Z,13.82
2022-09-13T23:48:52.974Z,9.23
2022-09-13T23:51:23.365Z,10.43
2022-09-13T23:53:52.319Z,16.98
2022-09-13T23:56:19.840Z,11.98
2022-09-13T23:58:46.841Z,7.53
